Terminal Aerodrome Forecast
Issued by NWS Wilmington, NC

Home | Current Version | Previous Version | Text Only | Print | Product List | Glossary On
Versions: 1 2 3 4 5 6 7 8 9 10 11 12 13 14 15 16 17 18 19 20 21 22 23
000
FTUS42 KILM 311202 CCB
TAFLBT
TAF COR
KLBT 311202Z 3112/0112 02004KT P6SM VCSH BKN007 BKN080
      TEMPO 3112/3115 SCT007 BKN080
     FM311500 03007KT P6SM VCSH SCT020 BKN100
      TEMPO 3115/3117 BKN020
     FM010200 VRB03KT P6SM SCT050 OVC100
     FM010800 01004KT 4SM BR BKN003=

USA.gov is the U.S. government's official web portal to all federal, state and local government web resources and services.